createdAt,value
2018-11-29T00:00:24.118Z,2.50
2018-11-29T00:02:52.814Z,2.07
2018-11-29T00:05:21.485Z,1.03
2018-11-29T00:07:50.121Z,3.60
2018-11-29T00:10:18.842Z,1.07
2018-11-29T00:12:47.523Z,2.07
2018-11-29T00:15:16.536Z,1.63
2018-11-29T00:17:45.252Z,1.40
2018-11-29T00:20:16.461Z,1.73
2018-11-29T00:22:45.840Z,1.07
2018-11-29T00:25:17.975Z,0.77
2018-11-29T00:27:46.877Z,2.87
2018-11-29T00:30:17.340Z,1.30
2018-11-29T00:32:45.999Z,1.90
2018-11-29T00:35:15.418Z,1.20
2018-11-29T00:37:44.201Z,1.53
2018-11-29T00:40:18.601Z,3.33
2018-11-29T00:42:47.350Z,1.30
2018-11-29T00:45:17.800Z,3.77
2018-11-29T00:47:46.939Z,3.27
2018-11-29T00:50:16.264Z,2.67
2018-11-29T00:52:45.810Z,1.43
2018-11-29T00:55:18.223Z,2.87
2018-11-29T00:57:46.934Z,1.50
2018-11-29T01:00:19.477Z,1.73
2018-11-29T01:02:48.245Z,2.03
2018-11-29T01:05:16.888Z,4.67
2018-11-29T01:07:45.515Z,2.43
2018-11-29T01:10:15.007Z,5.80
2018-11-29T01:12:43.854Z,2.30
2018-11-29T01:15:14.151Z,2.37
2018-11-29T01:17:42.965Z,3.23
2018-11-29T01:20:13.527Z,6.53
2018-11-29T01:22:42.218Z,3.40
2018-11-29T01:25:12.757Z,2.73
2018-11-29T01:27:41.737Z,3.20
2018-11-29T01:30:18.212Z,2.03
2018-11-29T01:32:46.789Z,1.97
2018-11-29T01:35:16.447Z,2.60
2018-11-29T01:37:45.079Z,3.47
2018-11-29T01:40:16.998Z,3.23
2018-11-29T01:42:47.501Z,3.30
2018-11-29T01:45:16.115Z,2.20
2018-11-29T01:47:44.774Z,2.90
2018-11-29T01:50:13.482Z,4.30
2018-11-29T01:52:42.149Z,3.33
2018-11-29T01:55:10.878Z,4.80
2018-11-29T01:57:39.499Z,3.07
2018-11-29T02:00:11.313Z,2.83
2018-11-29T02:02:39.972Z,2.47
2018-11-29T02:05:09.843Z,3.03
2018-11-29T02:07:38.472Z,3.80
2018-11-29T02:10:14.288Z,2.53
2018-11-29T02:12:42.923Z,2.57
2018-11-29T02:15:11.573Z,4.00
2018-11-29T02:17:40.274Z,3.90
2018-11-29T02:20:13.263Z,4.07
2018-11-29T02:22:41.977Z,3.73
2018-11-29T02:25:10.595Z,4.57
2018-11-29T02:27:39.254Z,2.53
2018-11-29T02:36:40.763Z,2.13
2018-11-29T02:39:09.606Z,3.57
2018-11-29T02:41:38.212Z,3.73
2018-11-29T02:44:06.893Z,4.37
2018-11-29T02:46:35.564Z,2.17
2018-11-29T02:49:04.212Z,2.57
2018-11-29T02:51:32.830Z,3.20
2018-11-29T02:54:01.507Z,1.93
2018-11-29T02:56:30.158Z,3.40
2018-11-29T02:58:58.789Z,4.00
2018-11-29T03:01:27.443Z,4.73
2018-11-29T03:03:56.073Z,4.13
2018-11-29T03:06:24.707Z,6.70
2018-11-29T03:08:53.350Z,2.97
2018-11-29T03:11:21.954Z,2.70
2018-11-29T03:13:50.550Z,4.23
2018-11-29T03:16:19.192Z,4.13
2018-11-29T03:18:48.204Z,3.73
2018-11-29T03:21:17.078Z,2.93
2018-11-29T03:23:45.691Z,4.47
2018-11-29T03:26:14.407Z,4.40
2018-11-29T03:28:43.046Z,2.93
2018-11-29T03:31:11.705Z,1.70
2018-11-29T03:33:40.356Z,2.87
2018-11-29T03:36:09.358Z,4.93
2018-11-29T03:38:37.996Z,8.13
2018-11-29T03:41:06.655Z,5.47
2018-11-29T03:43:35.319Z,3.80
2018-11-29T03:46:03.981Z,2.10
2018-11-29T03:48:32.611Z,2.50
2018-11-29T03:51:01.216Z,4.60
2018-11-29T03:53:29.874Z,5.50
2018-11-29T03:55:59.365Z,3.30
2018-11-29T03:58:28.076Z,3.40
2018-11-29T04:00:56.702Z,2.80
2018-11-29T04:03:25.299Z,5.13
2018-11-29T04:05:53.963Z,6.23
2018-11-29T04:08:22.578Z,4.60
2018-11-29T04:10:51.227Z,5.03
2018-11-29T04:13:19.915Z,2.87
2018-11-29T04:15:48.548Z,4.13
2018-11-29T04:18:17.191Z,5.40
2018-11-29T04:20:45.821Z,3.47
2018-11-29T04:23:14.861Z,5.97
2018-11-29T04:25:43.485Z,5.13
2018-11-29T04:28:12.079Z,7.30
2018-11-29T04:30:40.714Z,6.60
2018-11-29T04:33:09.381Z,5.20
2018-11-29T04:35:37.980Z,6.37
2018-11-29T04:38:06.689Z,7.20
2018-11-29T04:40:35.318Z,5.60
2018-11-29T04:43:03.950Z,7.00
2018-11-29T04:47:38.960Z,6.97
2018-11-29T04:50:07.673Z,10.97
2018-11-29T04:52:36.418Z,8.63
2018-11-29T04:55:05.167Z,8.07
2018-11-29T04:57:33.816Z,7.63
2018-11-29T05:00:02.504Z,10.07
2018-11-29T05:02:31.192Z,8.03
2018-11-29T05:04:59.832Z,8.33
2018-11-29T05:07:28.479Z,9.07
2018-11-29T05:09:57.091Z,9.17
2018-11-29T05:12:25.723Z,12.47
2018-11-29T05:14:54.340Z,11.13
2018-11-29T05:17:23.045Z,15.23
2018-11-29T05:19:51.735Z,12.23
2018-11-29T05:22:20.391Z,10.87
2018-11-29T05:24:49.087Z,14.90
2018-11-29T05:27:17.698Z,13.03
2018-11-29T05:29:46.335Z,11.30
2018-11-29T05:32:15.027Z,10.67
2018-11-29T05:34:43.695Z,13.27
2018-11-29T05:37:12.315Z,15.37
2018-11-29T05:39:40.962Z,16.93
2018-11-29T05:42:09.583Z,13.13
2018-11-29T05:44:38.212Z,10.13
2018-11-29T05:47:06.988Z,12.13
2018-11-29T05:49:35.625Z,12.13
2018-11-29T05:52:04.266Z,10.27
2018-11-29T05:54:32.960Z,10.90
2018-11-29T05:57:01.575Z,11.27
2018-11-29T05:59:30.252Z,13.43
2018-11-29T06:01:59.308Z,17.07
2018-11-29T06:04:27.943Z,11.00
2018-11-29T06:06:56.555Z,13.13
2018-11-29T06:09:25.220Z,9.53
2018-11-29T06:11:53.837Z,14.20
2018-11-29T06:14:22.468Z,13.43
2018-11-29T06:16:51.168Z,10.77
2018-11-29T06:19:19.880Z,13.93
2018-11-29T06:21:48.536Z,10.10
2018-11-29T06:24:17.188Z,13.97
2018-11-29T06:26:45.851Z,11.77
2018-11-29T06:29:14.488Z,11.60
2018-11-29T06:31:44.136Z,13.33
2018-11-29T06:34:12.786Z,15.23
2018-11-29T06:36:41.390Z,11.03
2018-11-29T06:39:10.034Z,14.00
2018-11-29T06:41:38.676Z,14.23
2018-11-29T06:44:07.298Z,12.07
2018-11-29T06:46:35.953Z,14.07
2018-11-29T06:49:04.761Z,11.80
2018-11-29T06:51:33.422Z,12.20
2018-11-29T06:54:02.076Z,10.27
2018-11-29T06:56:30.710Z,11.53
2018-11-29T06:58:59.366Z,8.73
2018-11-29T07:01:28.017Z,13.00
2018-11-29T07:03:56.882Z,10.53
2018-11-29T07:06:25.570Z,11.30
2018-11-29T07:08:54.233Z,14.80
2018-11-29T07:11:22.849Z,14.57
2018-11-29T07:13:51.684Z,10.70
2018-11-29T07:16:20.780Z,12.53
2018-11-29T07:18:49.515Z,9.07
2018-11-29T07:21:29.418Z,11.13
2018-11-29T07:23:58.400Z,10.33
2018-11-29T07:26:27.384Z,12.10
2018-11-29T07:28:56.592Z,12.30
2018-11-29T07:31:25.598Z,9.27
2018-11-29T07:33:54.575Z,12.00
2018-11-29T07:36:23.332Z,11.60
2018-11-29T07:38:52.255Z,15.97
2018-11-29T07:41:21.078Z,14.60
2018-11-29T07:43:50.082Z,12.70
2018-11-29T07:46:19.001Z,14.20
2018-11-29T07:48:47.831Z,10.67
2018-11-29T07:51:16.728Z,14.03
2018-11-29T07:53:45.724Z,11.80
2018-11-29T07:56:14.554Z,12.73
2018-11-29T07:58:43.573Z,12.00
2018-11-29T08:01:12.675Z,11.47
2018-11-29T08:03:42.057Z,14.87
2018-11-29T08:06:10.943Z,13.37
2018-11-29T08:08:39.920Z,14.00
2018-11-29T08:11:08.978Z,16.10
2018-11-29T08:13:37.950Z,11.33
2018-11-29T08:16:07.593Z,13.57
2018-11-29T08:18:36.765Z,15.77
2018-11-29T08:21:05.760Z,15.77
2018-11-29T08:23:34.687Z,14.57
2018-11-29T08:26:03.606Z,13.10
2018-11-29T08:28:32.569Z,11.40
2018-11-29T08:31:01.407Z,16.00
2018-11-29T08:33:30.431Z,14.60
2018-11-29T08:35:59.451Z,17.77
2018-11-29T08:38:28.369Z,15.30
2018-11-29T08:40:57.307Z,15.07
2018-11-29T08:43:26.860Z,14.93
2018-11-29T08:45:54.855Z,20.07
2018-11-29T08:48:23.649Z,16.37
2018-11-29T08:50:52.578Z,15.20
2018-11-29T08:53:21.371Z,19.17
2018-11-29T08:55:50.667Z,16.50
2018-11-29T08:58:19.558Z,19.87
2018-11-29T09:00:48.346Z,18.73
2018-11-29T09:03:17.363Z,17.00
2018-11-29T09:05:46.451Z,16.57
2018-11-29T09:08:15.276Z,14.40
2018-11-29T09:10:44.206Z,17.50
2018-11-29T09:13:13.052Z,19.43
2018-11-29T09:15:41.784Z,18.13
2018-11-29T09:18:10.663Z,17.93
2018-11-29T09:20:40.285Z,19.00
2018-11-29T09:23:09.239Z,18.23
2018-11-29T09:25:38.304Z,20.13
2018-11-29T09:28:07.322Z,17.57
2018-11-29T09:30:36.430Z,17.40
2018-11-29T09:33:05.527Z,15.20
2018-11-29T09:35:34.588Z,18.57
2018-11-29T09:38:03.381Z,18.93
2018-11-29T09:40:32.310Z,19.70
2018-11-29T09:43:01.221Z,13.27
2018-11-29T09:45:30.026Z,13.83
2018-11-29T09:47:58.936Z,15.47
2018-11-29T09:50:27.993Z,17.20
2018-11-29T09:52:56.585Z,18.97
2018-11-29T09:55:25.333Z,16.20
2018-11-29T09:57:54.204Z,15.37
2018-11-29T10:00:28.441Z,18.87
2018-11-29T10:03:04.203Z,17.00
2018-11-29T10:05:33.188Z,16.93
2018-11-29T10:08:02.194Z,16.23
2018-11-29T10:10:31.010Z,15.10
2018-11-29T10:12:59.866Z,17.53
2018-11-29T10:15:28.663Z,17.17
2018-11-29T10:17:57.750Z,16.30
2018-11-29T10:20:27.035Z,14.97
2018-11-29T10:22:56.077Z,18.07
2018-11-29T10:25:24.699Z,18.47
2018-11-29T10:27:56.392Z,14.10
2018-11-29T10:30:29.373Z,23.27
2018-11-29T10:32:58.690Z,17.37
2018-11-29T10:35:27.564Z,18.23
2018-11-29T10:37:56.339Z,18.63
2018-11-29T10:40:25.348Z,15.20
2018-11-29T10:42:54.628Z,18.57
2018-11-29T10:45:23.763Z,21.73
2018-11-29T10:47:53.883Z,18.07
2018-11-29T10:50:22.744Z,15.70
2018-11-29T10:52:52.660Z,23.53
2018-11-29T10:55:21.644Z,18.33
2018-11-29T10:57:50.553Z,17.83
2018-11-29T11:00:26.517Z,20.67
2018-11-29T11:03:02.671Z,19.43
2018-11-29T11:05:31.957Z,23.97
2018-11-29T11:08:07.799Z,18.47
2018-11-29T11:10:29.956Z,16.73
2018-11-29T11:12:58.955Z,20.03
2018-11-29T11:15:27.904Z,21.43
2018-11-29T11:17:56.954Z,18.43
2018-11-29T11:20:26.040Z,19.03
2018-11-29T11:22:55.155Z,20.37
2018-11-29T11:25:24.120Z,22.27
2018-11-29T11:27:52.953Z,20.23
2018-11-29T11:30:22.306Z,18.53
2018-11-29T11:32:52.256Z,17.10
2018-11-29T11:35:21.209Z,24.93
2018-11-29T11:37:50.233Z,17.10
2018-11-29T11:40:19.371Z,19.13
2018-11-29T11:42:48.163Z,20.83
2018-11-29T11:45:18.836Z,16.20
2018-11-29T11:47:47.975Z,20.63
2018-11-29T11:50:21.846Z,23.90
2018-11-29T11:52:51.000Z,24.93
2018-11-29T11:55:20.255Z,18.00
2018-11-29T11:57:49.363Z,17.33
2018-11-29T12:00:23.064Z,19.07
2018-11-29T12:02:53.500Z,23.37
2018-11-29T12:05:22.555Z,20.77
2018-11-29T12:07:51.363Z,14.80
2018-11-29T12:10:20.448Z,19.47
2018-11-29T12:12:49.328Z,20.63
2018-11-29T12:15:18.805Z,21.83
2018-11-29T12:17:48.145Z,21.83
2018-11-29T12:20:18.084Z,25.07
2018-11-29T12:22:47.102Z,18.27
2018-11-29T12:25:17.995Z,18.97
2018-11-29T12:27:47.189Z,20.57
2018-11-29T12:30:25.684Z,23.03
2018-11-29T12:32:56.123Z,22.73
2018-11-29T12:35:24.947Z,22.73
2018-11-29T12:37:54.071Z,25.17
2018-11-29T12:40:22.749Z,20.63
2018-11-29T12:42:51.677Z,22.70
2018-11-29T12:45:20.649Z,24.40
2018-11-29T12:47:49.628Z,20.50
2018-11-29T12:50:20.292Z,20.43
2018-11-29T12:52:49.565Z,20.03
2018-11-29T12:55:19.554Z,20.70
2018-11-29T12:58:04.406Z,20.30
2018-11-29T13:00:19.261Z,20.57
2018-11-29T13:02:50.050Z,20.23
2018-11-29T13:05:18.982Z,22.07
2018-11-29T13:07:48.114Z,18.80
2018-11-29T13:10:17.946Z,23.03
2018-11-29T13:12:46.832Z,23.23
2018-11-29T13:15:17.987Z,23.13
2018-11-29T13:17:46.640Z,19.57
2018-11-29T13:20:16.596Z,18.40
2018-11-29T13:22:45.761Z,15.80
2018-11-29T13:25:16.528Z,20.90
2018-11-29T13:27:45.523Z,20.27
2018-11-29T13:30:18.344Z,22.23
2018-11-29T13:32:47.839Z,26.07
2018-11-29T13:35:20.254Z,20.40
2018-11-29T13:37:57.983Z,21.30
2018-11-29T13:40:27.139Z,25.27
2018-11-29T13:42:56.206Z,19.97
2018-11-29T13:45:25.237Z,14.10
2018-11-29T13:47:54.108Z,17.63
2018-11-29T13:50:23.077Z,19.80
2018-11-29T13:52:52.030Z,17.60
2018-11-29T13:55:21.188Z,22.07
2018-11-29T13:57:50.689Z,21.30
2018-11-29T14:00:21.830Z,25.48
2018-11-29T14:02:55.872Z,21.70
2018-11-29T14:05:24.566Z,18.53
2018-11-29T14:07:53.248Z,24.20
2018-11-29T14:10:23.811Z,19.50
2018-11-29T14:12:54.507Z,18.80
2018-11-29T14:15:26.186Z,23.80
2018-11-29T14:17:54.856Z,20.43
2018-11-29T14:20:23.492Z,15.17
2018-11-29T14:22:52.243Z,17.47
2018-11-29T14:25:20.871Z,19.83
2018-11-29T14:27:50.666Z,19.13
2018-11-29T14:30:20.460Z,17.20
2018-11-29T14:32:49.236Z,17.63
2018-11-29T14:35:17.876Z,14.40
2018-11-29T14:37:46.772Z,17.80
2018-11-29T14:40:19.186Z,15.00
2018-11-29T14:42:47.898Z,20.37
2018-11-29T14:45:18.345Z,16.23
2018-11-29T14:47:46.989Z,15.70
2018-11-29T14:50:26.939Z,15.60
2018-11-29T14:52:55.583Z,15.47
2018-11-29T14:55:24.244Z,18.43
2018-11-29T14:57:52.978Z,18.23
2018-11-29T15:00:21.660Z,18.90
2018-11-29T15:02:50.321Z,21.33
2018-11-29T15:05:23.363Z,23.57
2018-11-29T15:07:52.024Z,18.27
2018-11-29T15:10:20.659Z,16.83
2018-11-29T15:12:49.346Z,16.03
2018-11-29T15:15:18.102Z,15.90
2018-11-29T15:17:47.877Z,22.43
2018-11-29T15:20:20.074Z,15.93
2018-11-29T15:22:48.733Z,15.13
2018-11-29T15:25:17.383Z,17.27
2018-11-29T15:27:46.144Z,14.63
2018-11-29T15:30:16.846Z,20.03
2018-11-29T15:32:45.527Z,12.67
2018-11-29T15:35:14.223Z,15.00
2018-11-29T15:37:42.853Z,19.00
2018-11-29T15:40:12.671Z,17.77
2018-11-29T15:42:41.420Z,17.50
2018-11-29T15:45:14.374Z,18.50
2018-11-29T15:47:43.059Z,15.90
2018-11-29T15:50:14.569Z,17.87
2018-11-29T15:52:43.438Z,12.37
2018-11-29T15:55:16.929Z,14.43
2018-11-29T15:57:46.504Z,13.87
2018-11-29T16:00:18.912Z,17.57
2018-11-29T16:02:48.141Z,14.70
2018-11-29T16:05:16.791Z,10.93
2018-11-29T16:07:45.471Z,14.93
2018-11-29T16:10:15.640Z,17.67
2018-11-29T16:12:44.310Z,15.43
2018-11-29T16:15:16.948Z,15.03
2018-11-29T16:17:46.121Z,13.50
2018-11-29T16:20:30.697Z,14.57
2018-11-29T16:22:59.356Z,13.97
2018-11-29T16:25:28.054Z,14.17
2018-11-29T16:27:56.792Z,15.73
2018-11-29T16:30:39.563Z,11.37
2018-11-29T16:33:10.620Z,17.37
2018-11-29T16:35:39.281Z,14.57
2018-11-29T16:38:08.151Z,22.93
2018-11-29T16:40:37.098Z,19.47
2018-11-29T16:43:06.371Z,18.20
2018-11-29T16:45:35.131Z,11.33
2018-11-29T16:48:03.809Z,24.97
2018-11-29T16:50:32.500Z,16.20
2018-11-29T16:53:01.175Z,19.83
2018-11-29T16:55:29.847Z,12.13
2018-11-29T16:58:00.309Z,18.03
2018-11-29T17:00:28.953Z,16.00
2018-11-29T17:02:57.611Z,14.90
2018-11-29T17:05:26.421Z,17.33
2018-11-29T17:07:55.151Z,25.63
2018-11-29T17:10:23.969Z,20.70
2018-11-29T17:12:54.159Z,18.27
2018-11-29T17:15:22.832Z,15.70
2018-11-29T17:17:51.494Z,16.33
2018-11-29T17:20:21.182Z,20.83
2018-11-29T17:22:50.752Z,12.60
2018-11-29T17:25:19.574Z,17.87
2018-11-29T17:27:48.395Z,11.87
2018-11-29T17:30:19.176Z,17.67
2018-11-29T17:32:48.256Z,15.40
2018-11-29T17:35:17.220Z,17.63
2018-11-29T17:37:46.050Z,12.43
2018-11-29T17:40:15.704Z,15.13
2018-11-29T17:42:44.421Z,21.53
2018-11-29T17:45:18.277Z,15.37
2018-11-29T17:47:47.309Z,14.60
2018-11-29T17:50:19.582Z,14.90
2018-11-29T17:52:48.680Z,17.90
2018-11-29T17:55:17.349Z,15.97
2018-11-29T17:57:46.014Z,17.30
2018-11-29T18:00:18.843Z,15.10
2018-11-29T18:02:47.549Z,20.87
2018-11-29T18:05:16.227Z,18.83
2018-11-29T18:07:44.915Z,15.73
2018-11-29T18:10:15.005Z,14.83
2018-11-29T18:12:43.757Z,15.93
2018-11-29T18:15:44.094Z,13.43
2018-11-29T18:18:12.803Z,14.87
2018-11-29T18:20:41.479Z,13.30
2018-11-29T18:23:10.517Z,16.53
2018-11-29T18:25:39.171Z,15.63
2018-11-29T18:28:08.515Z,19.57
2018-11-29T18:30:37.248Z,15.80
2018-11-29T18:33:06.719Z,22.27
2018-11-29T18:35:35.716Z,14.80
2018-11-29T18:38:04.669Z,15.60
2018-11-29T18:40:33.448Z,15.50
2018-11-29T18:43:02.079Z,15.93
2018-11-29T18:45:30.790Z,15.13
2018-11-29T18:47:59.495Z,11.70
2018-11-29T18:50:28.235Z,14.83
2018-11-29T18:52:56.939Z,19.50
2018-11-29T18:55:26.331Z,14.60
2018-11-29T18:57:56.089Z,19.27
2018-11-29T19:00:25.956Z,14.43
2018-11-29T19:02:57.136Z,11.40
2018-11-29T19:05:23.581Z,17.87
2018-11-29T19:07:52.311Z,17.27
2018-11-29T19:10:21.283Z,13.43
2018-11-29T19:12:57.692Z,12.77
2018-11-29T19:15:26.437Z,19.80
2018-11-29T19:17:55.128Z,17.07
2018-11-29T19:20:23.948Z,21.43
2018-11-29T19:22:52.800Z,17.13
2018-11-29T19:25:21.485Z,16.47
2018-11-29T19:27:50.327Z,16.97
2018-11-29T19:30:28.709Z,16.53
2018-11-29T19:33:17.519Z,19.63
2018-11-29T19:35:49.859Z,18.90
2018-11-29T19:38:18.631Z,17.47
2018-11-29T19:40:47.341Z,13.47
2018-11-29T19:43:16.127Z,15.80
2018-11-29T19:45:44.835Z,12.97
2018-11-29T19:48:13.562Z,18.60
2018-11-29T19:50:42.324Z,15.70
2018-11-29T19:53:15.140Z,19.63
2018-11-29T19:55:43.954Z,12.73
2018-11-29T19:58:12.661Z,23.20
2018-11-29T20:00:41.361Z,18.40
2018-11-29T20:03:10.262Z,9.10
2018-11-29T20:05:38.981Z,17.33
2018-11-29T20:08:08.048Z,13.90
2018-11-29T20:10:37.009Z,17.00
2018-11-29T20:13:09.913Z,15.53
2018-11-29T20:15:40.332Z,14.57
2018-11-29T20:18:10.689Z,13.53
2018-11-29T20:20:39.781Z,13.03
2018-11-29T20:23:09.570Z,13.13
2018-11-29T20:25:38.504Z,14.37
2018-11-29T20:28:07.556Z,13.77
2018-11-29T20:30:36.502Z,14.77
2018-11-29T20:33:05.473Z,18.50
2018-11-29T20:35:34.229Z,16.07
2018-11-29T20:38:02.998Z,18.13
2018-11-29T20:40:33.243Z,19.00
2018-11-29T20:43:02.161Z,17.10
2018-11-29T20:45:33.199Z,15.33
2018-11-29T20:48:03.549Z,18.13
2018-11-29T20:50:32.288Z,15.80
2018-11-29T20:53:01.184Z,19.30
2018-11-29T20:55:31.137Z,19.60
2018-11-29T20:57:59.971Z,17.17
2018-11-29T21:00:28.657Z,17.50
2018-11-29T21:02:57.344Z,17.73
2018-11-29T21:05:26.268Z,22.23
2018-11-29T21:07:57.600Z,15.53
2018-11-29T21:10:27.380Z,16.00
2018-11-29T21:12:56.389Z,16.63
2018-11-29T21:15:25.460Z,16.37
2018-11-29T21:17:54.141Z,14.30
2018-11-29T21:20:22.785Z,17.60
2018-11-29T21:22:51.942Z,15.33
2018-11-29T21:25:21.948Z,15.17
2018-11-29T21:27:50.714Z,18.60
2018-11-29T21:30:19.431Z,16.23
2018-11-29T21:32:48.497Z,19.90
2018-11-29T21:35:18.409Z,16.10
2018-11-29T21:37:47.087Z,14.30
2018-11-29T21:40:23.092Z,16.63
2018-11-29T21:42:51.802Z,17.87
2018-11-29T21:45:20.491Z,21.23
2018-11-29T21:47:49.207Z,21.47
2018-11-29T21:50:17.927Z,20.43
2018-11-29T21:52:46.637Z,18.53
2018-11-29T21:55:15.385Z,17.30
2018-11-29T21:57:44.075Z,16.83
2018-11-29T22:00:18.680Z,18.33
2018-11-29T22:02:48.750Z,18.40
2018-11-29T22:05:17.428Z,22.27
2018-11-29T22:07:46.163Z,25.43
2018-11-29T22:10:14.868Z,25.60
2018-11-29T22:12:43.526Z,22.90
2018-11-29T22:15:12.712Z,19.07
2018-11-29T22:18:23.248Z,24.00
2018-11-29T22:20:57.084Z,24.30
2018-11-29T22:23:25.836Z,23.97
2018-11-29T22:25:55.507Z,28.90
2018-11-29T22:28:24.264Z,28.87
2018-11-29T22:30:53.413Z,24.23
2018-11-29T22:33:22.100Z,25.50
2018-11-29T22:35:50.834Z,24.37
2018-11-29T22:38:19.507Z,26.53
2018-11-29T22:40:48.170Z,26.03
2018-11-29T22:43:16.897Z,26.47
2018-11-29T22:45:45.584Z,22.43
2018-11-29T22:48:14.276Z,30.10
2018-11-29T22:50:42.995Z,22.80
2018-11-29T22:53:11.665Z,19.40
2018-11-29T22:55:40.374Z,23.97
2018-11-29T22:58:09.206Z,28.93
2018-11-29T23:00:43.189Z,26.60
2018-11-29T23:03:12.639Z,29.97
2018-11-29T23:05:41.311Z,29.17
2018-11-29T23:08:10.492Z,31.47
2018-11-29T23:10:39.188Z,28.57
2018-11-29T23:13:07.929Z,27.50
2018-11-29T23:15:36.752Z,21.57
2018-11-29T23:18:05.684Z,30.97
2018-11-29T23:20:34.356Z,21.03
2018-11-29T23:23:03.055Z,28.50
2018-11-29T23:25:31.721Z,30.10
2018-11-29T23:28:00.796Z,27.10
2018-11-29T23:30:29.438Z,26.57
2018-11-29T23:32:58.152Z,29.63
2018-11-29T23:35:26.810Z,29.57
2018-11-29T23:37:55.504Z,23.80
2018-11-29T23:40:24.199Z,23.43
2018-11-29T23:42:53.034Z,21.97
2018-11-29T23:45:21.787Z,24.30
2018-11-29T23:47:50.906Z,28.00
2018-11-29T23:50:19.748Z,28.43
2018-11-29T23:52:48.357Z,22.33
2018-11-29T23:55:19.129Z,24.87
2018-11-29T23:57:47.785Z,23.53
